Map

Track Data

SID SEASON NUMBER BASIN SUBBASIN NAME ISO_TIME NATURE LAT LON WMO_WIND WMO_PRES WMO_AGENCY TRACK_TYPE DIST2LAND LANDFALL IFLAG USA_AGENCY USA_ATCF_ID USA_LAT USA_LON USA_RECORD USA_STATUS USA_WIND USA_PRES USA_SSHS USA_R34_NE USA_R34_SE USA_R34_SW USA_R34_NW USA_R50_NE USA_R50_SE USA_R50_SW USA_R50_NW USA_R64_NE USA_R64_SE USA_R64_SW USA_R64_NW USA_POCI USA_ROCI USA_RMW USA_EYE TOKYO_LAT TOKYO_LON TOKYO_GRADE TOKYO_WIND TOKYO_PRES TOKYO_R50_DIR TOKYO_R50_LONG TOKYO_R50_SHORT TOKYO_R30_DIR TOKYO_R30_LONG TOKYO_R30_SHORT TOKYO_LAND CMA_LAT CMA_LON CMA_CAT CMA_WIND CMA_PRES HKO_LAT HKO_LON HKO_CAT HKO_WIND HKO_PRES NEWDELHI_LAT NEWDELHI_LON NEWDELHI_GRADE NEWDELHI_WIND NEWDELHI_PRES NEWDELHI_CI NEWDELHI_DP NEWDELHI_POCI REUNION_LAT REUNION_LON REUNION_TYPE REUNION_WIND REUNION_PRES REUNION_TNUM REUNION_CI REUNION_RMW REUNION_R34_NE REUNION_R34_SE REUNION_R34_SW REUNION_R34_NW REUNION_R50_NE REUNION_R50_SE REUNION_R50_SW REUNION_R50_NW REUNION_R64_NE REUNION_R64_SE REUNION_R64_SW REUNION_R64_NW BOM_LAT BOM_LON BOM_TYPE BOM_WIND BOM_PRES BOM_TNUM BOM_CI BOM_RMW BOM_R34_NE BOM_R34_SE BOM_R34_SW BOM_R34_NW BOM_R50_NE BOM_R50_SE BOM_R50_SW BOM_R50_NW BOM_R64_NE BOM_R64_SE BOM_R64_SW BOM_R64_NW BOM_ROCI BOM_POCI BOM_EYE BOM_POS_METHOD BOM_PRES_METHOD NADI_LAT NADI_LON NADI_CAT NADI_WIND NADI_PRES WELLINGTON_LAT WELLINGTON_LON WELLINGTON_WIND WELLINGTON_PRES DS824_LAT DS824_LON DS824_STAGE DS824_WIND DS824_PRES TD9636_LAT TD9636_LON TD9636_STAGE TD9636_WIND TD9636_PRES TD9635_LAT TD9635_LON TD9635_WIND TD9635_PRES TD9635_ROCI NEUMANN_LAT NEUMANN_LON NEUMANN_CLASS NEUMANN_WIND NEUMANN_PRES MLC_LAT MLC_LON MLC_CLASS MLC_WIND MLC_PRES USA_GUST BOM_GUST BOM_GUST_PER REUNION_GUST REUNION_GUST_PER USA_SEAHGT USA_SEARAD_NE USA_SEARAD_SE USA_SEARAD_SW USA_SEARAD_NW STORM_SPEED STORM_DIR
1896226N21088 1896 25 NI BB NOT_NAMED 1896-08-13 00:00:00 TS 20.6000 88.2000 main 111 83 _________O____ -1 20.6000 88.2000 TC 30 9 299
1896226N21088 1896 25 NI BB NOT_NAMED 1896-08-13 03:00:00 TS 20.8103 87.8020 main 83 38 _________PO___ -1 20.9154 87.6030 TC 30 20.6000 88.2000 1 10 298
1896226N21088 1896 25 NI BB NOT_NAMED 1896-08-13 06:00:00 TS 21.0783 87.2354 main 38 0 _________OP___ -1 21.2000 87.0000 TC 30 20.8957 87.5885 1 12 295
1896226N21088 1896 25 NI BB NOT_NAMED 1896-08-13 09:00:00 TS 21.3195 86.6444 main 0 0 _________PP___ -1 21.4299 86.3924 TC 30 21.1723 86.9804 1 12 292
1896226N21088 1896 25 NI BB NOT_NAMED 1896-08-13 12:00:00 TS 21.5063 86.0910 main 0 0 _________OP___ -1 21.6000 85.8000 TC 30 21.4127 86.3820 1 11 288
1896226N21088 1896 25 NI BB NOT_NAMED 1896-08-13 15:00:00 TS 21.6611 85.5249 main 0 0 _________PO___ -1 21.7222 85.2498 TC 30 21.6000 85.8000 1 11 284
1896226N21088 1896 25 NI BB NOT_NAMED 1896-08-13 18:00:00 TS 21.7620 84.9684 main 0 0 _________OP___ -1 21.8000 84.7000 TC 30 21.7241 85.2368 1 11 279
1896226N21088 1896 25 NI BB NOT_NAMED 1896-08-13 21:00:00 TS 21.8289 84.4003 main 0 0 _________PP___ -1 21.8572 84.1224 TC 30 21.8007 84.6783 1 11 276
1896226N21088 1896 25 NI BB NOT_NAMED 1896-08-14 00:00:00 TS 21.8760 83.8029 main 0 0 _________OP___ -1 21.9000 83.5000 TC 30 21.8520 84.1058 1 12 275
1896226N21088 1896 25 NI BB NOT_NAMED 1896-08-14 03:00:00 TS 21.9212 83.1574 main 0 0 _________PO___ -1 21.9424 82.8148 TC 30 21.9000 83.5000 1 12 275
1896226N21088 1896 25 NI BB NOT_NAMED 1896-08-14 06:00:00 TS 21.9852 82.4739 main 0 0 _________OP___ -1 22.0000 82.1000 TC 30 21.9704 82.8477 1 13 277
1896226N21088 1896 25 NI BB NOT_NAMED 1896-08-14 09:00:00 TS 22.0668 81.7872 main 0 0 _________PP___ -1 22.0920 81.4150 TC 30 22.0416 82.1593 1 13 278
1896226N21088 1896 25 NI BB NOT_NAMED 1896-08-14 12:00:00 TS 22.1585 81.0707 main 0 0 _________OP___ -1 22.2000 80.7000 TC 30 22.1170 81.4413 1 14 278
1896226N21088 1896 25 NI BB NOT_NAMED 1896-08-14 15:00:00 TS 22.2500 80.3037 main 0 0 _________PO___ -1 22.2999 79.9074 TC 30 22.2000 80.7000 1 14 277
1896226N21088 1896 25 NI BB NOT_NAMED 1896-08-14 18:00:00 TS 22.3418 79.5291 main 0 0 _________OP___ -1 22.4000 79.1000 TC 30 22.2837 79.9582 1 14 277
1896226N21088 1896 25 NI BB NOT_NAMED 1896-08-14 21:00:00 TS 22.4339 78.7756 main 0 0 _________PP___ -1 22.4918 78.3572 TC 30 22.3760 79.1941 1 14 278
1896226N21088 1896 25 NI BB NOT_NAMED 1896-08-15 00:00:00 TS 22.5402 78.0040 main 0 0 _________OP___ -1 22.6000 77.6000 TC 30 22.4803 78.4080 1 15 279
1896226N21088 1896 25 NI AS NOT_NAMED 1896-08-15 03:00:00 TS 22.6711 77.1825 main 0 0 _________PO___ -1 22.7423 76.7650 TC 30 22.6000 77.6000 1 16 280
1896226N21088 1896 25 NI AS NOT_NAMED 1896-08-15 06:00:00 TS 22.8152 76.3397 main 0 0 _________OP___ -1 22.9000 75.9000 TC 30 22.7305 76.7793 1 16 281
1896226N21088 1896 25 NI AS NOT_NAMED 1896-08-15 09:00:00 TS 22.9627 75.4971 main 0 0 _________PP___ -1 23.0494 75.0573 TC 30 22.8759 75.9369 1 16 281
1896226N21088 1896 25 NI AS NOT_NAMED 1896-08-15 12:00:00 TS 23.1167 74.6380 main 0 0 _________OP___ -1 23.2000 74.2000 TC 30 23.0334 75.0759 1 16 281
1896226N21088 1896 25 NI AS NOT_NAMED 1896-08-15 15:00:00 TS 23.2711 73.7536 main 0 0 _________PO___ -1 23.3421 73.3072 TC 30 23.2000 74.2000 1 16 281
1896226N21088 1896 25 NI AS NOT_NAMED 1896-08-15 18:00:00 TS 23.4274 72.9212 main 0 0 _________OP___ -1 23.5000 72.4000 TC 30 23.3729 73.3122 1 16 282
1896226N21088 1896 25 NI AS NOT_NAMED 1896-08-15 21:00:00 TS 23.6059 72.0481 main 0 0 _________PP___ -1 23.6910 71.4982 TC 30 23.5492 72.4147 1 16 283
1896226N21088 1896 25 NI AS NOT_NAMED 1896-08-16 00:00:00 TS 23.7839 71.2065 main 0 0 _________OP___ -1 23.9000 70.6000 TC 30 23.7258 71.5097 1 14 283
1896226N21088 1896 25 NI AS NOT_NAMED 1896-08-16 03:00:00 NR 23.9000 70.6000 main 0 __________O___ -1 TC 23.9000 70.6000 1 11 282

About IBTrACS Database

This database is a web-friendly format of International Best Track Archive for Climate Stewardship (IBTrACS), a global best track data archive curated by NOAA dating back to 1842.

Updated: 2021-12-03